sensor_id;sensor_type;location;lat;lon;timestamp;noise_LAeq;noise_LA_min;noise_LA_max;noise_LA01;noise_LA95
72160;Laerm;60045;51.792;10.938;2024-01-07T00:00:57;37.21;36.41;43.08;;
72160;Laerm;60045;51.792;10.938;2024-01-07T00:03:23;37.36;36.36;45.62;;
72160;Laerm;60045;51.792;10.938;2024-01-07T00:05:49;38.02;36.59;46.43;;
72160;Laerm;60045;51.792;10.938;2024-01-07T00:08:15;37.37;36.35;42.78;;
72160;Laerm;60045;51.792;10.938;2024-01-07T00:10:41;56.44;36.48;72.49;;
72160;Laerm;60045;51.792;10.938;2024-01-07T00:13:07;54.84;36.39;71.79;;
72160;Laerm;60045;51.792;10.938;2024-01-07T00:15:32;52.97;36.64;68.13;;
72160;Laerm;60045;51.792;10.938;2024-01-07T00:17:58;37.99;36.45;46.24;;
72160;Laerm;60045;51.792;10.938;2024-01-07T00:20:24;37.25;36.06;43.66;;
72160;Laerm;60045;51.792;10.938;2024-01-07T00:22:50;37.14;36.22;40.92;;
72160;Laerm;60045;51.792;10.938;2024-01-07T00:25:15;37.13;36.42;39.26;;
72160;Laerm;60045;51.792;10.938;2024-01-07T00:27:43;37.03;36.16;45.91;;
72160;Laerm;60045;51.792;10.938;2024-01-07T00:30:09;37.43;36.24;49.56;;
72160;Laerm;60045;51.792;10.938;2024-01-07T00:32:34;38.96;36.49;47.92;;
72160;Laerm;60045;51.792;10.938;2024-01-07T00:35:00;43.34;36.21;56.51;;
72160;Laerm;60045;51.792;10.938;2024-01-07T00:37:26;53.41;36.22;69.58;;
72160;Laerm;60045;51.792;10.938;2024-01-07T00:39:52;37.87;36.07;43.47;;
72160;Laerm;60045;51.792;10.938;2024-01-07T00:42:17;37.14;36.03;46.90;;
72160;Laerm;60045;51.792;10.938;2024-01-07T00:44:43;37.63;36.32;42.27;;
72160;Laerm;60045;51.792;10.938;2024-01-07T00:47:09;37.70;35.97;48.40;;
72160;Laerm;60045;51.792;10.938;2024-01-07T00:49:35;53.37;35.96;69.31;;
72160;Laerm;60045;51.792;10.938;2024-01-07T00:52:00;37.45;36.18;45.59;;
72160;Laerm;60045;51.792;10.938;2024-01-07T00:54:26;36.85;35.90;43.38;;
72160;Laerm;60045;51.792;10.938;2024-01-07T00:56:52;36.83;35.93;40.19;;
72160;Laerm;60045;51.792;10.938;2024-01-07T00:59:18;37.08;35.89;46.29;;
72160;Laerm;60045;51.792;10.938;2024-01-07T01:01:43;55.18;36.38;74.62;;
72160;Laerm;60045;51.792;10.938;2024-01-07T01:04:09;36.98;35.77;42.97;;
72160;Laerm;60045;51.792;10.938;2024-01-07T01:06:35;37.47;35.73;46.78;;
72160;Laerm;60045;51.792;10.938;2024-01-07T01:09:01;37.52;36.02;46.95;;
72160;Laerm;60045;51.792;10.938;2024-01-07T01:11:26;38.95;35.84;52.58;;
72160;Laerm;60045;51.792;10.938;2024-01-07T01:13:52;51.19;35.88;68.20;;
72160;Laerm;60045;51.792;10.938;2024-01-07T01:16:18;38.28;35.84;49.52;;
72160;Laerm;60045;51.792;10.938;2024-01-07T01:18:43;52.47;36.13;69.13;;
72160;Laerm;60045;51.792;10.938;2024-01-07T01:21:09;36.94;35.93;44.05;;
72160;Laerm;60045;51.792;10.938;2024-01-07T01:23:35;37.25;35.99;43.89;;
72160;Laerm;60045;51.792;10.938;2024-01-07T01:26:01;39.03;35.86;54.26;;
72160;Laerm;60045;51.792;10.938;2024-01-07T01:28:27;47.11;35.90;63.57;;
72160;Laerm;60045;51.792;10.938;2024-01-07T01:30:53;36.54;35.72;37.91;;
72160;Laerm;60045;51.792;10.938;2024-01-07T01:33:18;36.56;35.65;38.90;;
72160;Laerm;60045;51.792;10.938;2024-01-07T01:35:44;36.82;35.69;45.02;;
72160;Laerm;60045;51.792;10.938;2024-01-07T01:38:10;37.33;35.86;46.73;;
72160;Laerm;60045;51.792;10.938;2024-01-07T01:40:36;38.46;35.45;50.48;;
72160;Laerm;60045;51.792;10.938;2024-01-07T01:43:02;36.99;35.77;46.31;;
72160;Laerm;60045;51.792;10.938;2024-01-07T01:45:28;36.57;35.52;42.25;;
72160;Laerm;60045;51.792;10.938;2024-01-07T01:47:53;38.71;35.52;50.36;;
72160;Laerm;60045;51.792;10.938;2024-01-07T01:50:19;36.76;35.42;43.08;;
72160;Laerm;60045;51.792;10.938;2024-01-07T01:52:45;36.93;35.62;47.49;;
72160;Laerm;60045;51.792;10.938;2024-01-07T01:55:12;37.30;35.64;45.52;;
72160;Laerm;60045;51.792;10.938;2024-01-07T01:57:37;36.82;35.77;44.39;;
72160;Laerm;60045;51.792;10.938;2024-01-07T02:00:05;36.49;35.37;40.34;;
72160;Laerm;60045;51.792;10.938;2024-01-07T02:02:31;37.18;35.67;49.87;;
72160;Laerm;60045;51.792;10.938;2024-01-07T02:04:59;36.58;35.62;42.63;;
72160;Laerm;60045;51.792;10.938;2024-01-07T02:07:25;36.59;35.66;43.58;;
72160;Laerm;60045;51.792;10.938;2024-01-07T02:09:51;36.30;35.43;41.34;;
72160;Laerm;60045;51.792;10.938;2024-01-07T02:12:17;36.33;35.51;39.30;;
72160;Laerm;60045;51.792;10.938;2024-01-07T02:14:43;36.48;35.43;41.07;;
72160;Laerm;60045;51.792;10.938;2024-01-07T02:17:08;36.37;35.45;40.40;;
72160;Laerm;60045;51.792;10.938;2024-01-07T02:19:34;36.39;35.52;39.72;;
72160;Laerm;60045;51.792;10.938;2024-01-07T02:22:00;36.93;35.75;44.29;;
72160;Laerm;60045;51.792;10.938;2024-01-07T02:24:26;37.00;35.44;45.49;;
72160;Laerm;60045;51.792;10.938;2024-01-07T02:26:51;47.50;35.51;67.20;;
72160;Laerm;60045;51.792;10.938;2024-01-07T02:29:17;38.24;35.54;49.74;;
72160;Laerm;60045;51.792;10.938;2024-01-07T02:31:43;36.75;35.41;45.66;;
72160;Laerm;60045;51.792;10.938;2024-01-07T02:34:09;36.92;35.56;46.91;;
72160;Laerm;60045;51.792;10.938;2024-01-07T02:36:35;36.42;35.28;41.57;;
72160;Laerm;60045;51.792;10.938;2024-01-07T02:39:01;44.76;35.24;60.41;;
72160;Laerm;60045;51.792;10.938;2024-01-07T02:41:27;36.79;35.25;47.82;;
72160;Laerm;60045;51.792;10.938;2024-01-07T02:43:53;43.36;35.77;57.81;;
72160;Laerm;60045;51.792;10.938;2024-01-07T02:46:19;45.59;35.61;61.45;;
72160;Laerm;60045;51.792;10.938;2024-01-07T02:48:45;37.13;35.36;43.30;;
72160;Laerm;60045;51.792;10.938;2024-01-07T02:51:11;39.63;35.88;57.30;;
72160;Laerm;60045;51.792;10.938;2024-01-07T02:53:36;41.72;35.54;57.89;;
72160;Laerm;60045;51.792;10.938;2024-01-07T02:56:02;39.51;35.38;54.48;;
72160;Laerm;60045;51.792;10.938;2024-01-07T02:58:28;36.32;35.25;41.01;;
72160;Laerm;60045;51.792;10.938;2024-01-07T03:00:54;38.55;35.33;52.69;;
72160;Laerm;60045;51.792;10.938;2024-01-07T03:03:19;39.14;35.47;51.66;;
72160;Laerm;60045;51.792;10.938;2024-01-07T03:05:45;36.46;35.30;41.37;;
72160;Laerm;60045;51.792;10.938;2024-01-07T03:08:11;36.46;35.34;42.64;;
72160;Laerm;60045;51.792;10.938;2024-01-07T03:10:36;39.01;35.50;55.90;;
72160;Laerm;60045;51.792;10.938;2024-01-07T03:13:03;39.82;35.54;58.09;;
72160;Laerm;60045;51.792;10.938;2024-01-07T03:15:29;49.29;35.33;65.71;;
72160;Laerm;60045;51.792;10.938;2024-01-07T03:17:56;36.14;35.20;41.44;;
72160;Laerm;60045;51.792;10.938;2024-01-07T03:20:21;36.28;35.30;41.84;;
72160;Laerm;60045;51.792;10.938;2024-01-07T03:22:47;36.78;35.33;44.76;;
72160;Laerm;60045;51.792;10.938;2024-01-07T03:25:13;36.43;35.14;44.24;;
72160;Laerm;60045;51.792;10.938;2024-01-07T03:27:38;36.75;35.42;43.87;;
72160;Laerm;60045;51.792;10.938;2024-01-07T03:30:04;37.03;35.37;48.40;;
72160;Laerm;60045;51.792;10.938;2024-01-07T03:32:30;36.28;35.31;39.95;;
72160;Laerm;60045;51.792;10.938;2024-01-07T03:34:56;50.48;35.47;68.91;;
72160;Laerm;60045;51.792;10.938;2024-01-07T03:37:22;36.47;35.21;40.69;;
72160;Laerm;60045;51.792;10.938;2024-01-07T03:39:47;45.06;35.55;63.78;;
72160;Laerm;60045;51.792;10.938;2024-01-07T03:42:13;36.98;35.30;50.22;;
72160;Laerm;60045;51.792;10.938;2024-01-07T03:44:39;36.68;35.23;44.94;;
72160;Laerm;60045;51.792;10.938;2024-01-07T03:47:05;36.26;35.17;44.75;;
72160;Laerm;60045;51.792;10.938;2024-01-07T03:49:31;36.18;35.09;40.19;;
72160;Laerm;60045;51.792;10.938;2024-01-07T03:51:57;47.24;35.51;61.15;;
72160;Laerm;60045;51.792;10.938;2024-01-07T03:54:22;36.84;35.54;44.18;;
72160;Laerm;60045;51.792;10.938;2024-01-07T03:56:48;40.00;35.64;50.62;;
72160;Laerm;60045;51.792;10.938;2024-01-07T03:59:14;42.23;35.43;57.75;;
72160;Laerm;60045;51.792;10.938;2024-01-07T04:01:39;37.60;35.55;49.64;;
72160;Laerm;60045;51.792;10.938;2024-01-07T04:04:05;41.19;35.65;62.05;;
72160;Laerm;60045;51.792;10.938;2024-01-07T04:06:31;45.90;35.16;63.94;;
72160;Laerm;60045;51.792;10.938;2024-01-07T04:08:57;42.79;35.52;57.53;;
72160;Laerm;60045;51.792;10.938;2024-01-07T04:11:22;47.23;35.78;64.85;;
72160;Laerm;60045;51.792;10.938;2024-01-07T04:13:48;36.30;35.32;39.03;;
72160;Laerm;60045;51.792;10.938;2024-01-07T04:16:17;36.65;35.48;44.99;;
72160;Laerm;60045;51.792;10.938;2024-01-07T04:18:43;37.11;35.54;45.57;;
72160;Laerm;60045;51.792;10.938;2024-01-07T04:21:10;36.56;35.29;40.88;;
72160;Laerm;60045;51.792;10.938;2024-01-07T04:23:35;48.81;35.57;64.92;;
72160;Laerm;60045;51.792;10.938;2024-01-07T04:26:01;37.06;35.32;47.43;;
72160;Laerm;60045;51.792;10.938;2024-01-07T04:28:27;36.69;35.22;40.97;;
72160;Laerm;60045;51.792;10.938;2024-01-07T04:30:52;54.51;35.54;72.65;;
72160;Laerm;60045;51.792;10.938;2024-01-07T04:33:18;45.30;35.35;61.53;;
72160;Laerm;60045;51.792;10.938;2024-01-07T04:35:44;47.73;35.20;64.58;;
72160;Laerm;60045;51.792;10.938;2024-01-07T04:38:10;36.35;35.18;41.98;;
72160;Laerm;60045;51.792;10.938;2024-01-07T04:40:35;47.85;35.16;64.52;;
72160;Laerm;60045;51.792;10.938;2024-01-07T04:43:01;36.63;35.17;46.51;;
72160;Laerm;60045;51.792;10.938;2024-01-07T04:45:27;46.72;35.20;63.61;;
72160;Laerm;60045;51.792;10.938;2024-01-07T04:47:53;36.06;35.04;40.14;;
72160;Laerm;60045;51.792;10.938;2024-01-07T04:50:19;35.93;35.03;38.21;;
72160;Laerm;60045;51.792;10.938;2024-01-07T04:52:47;35.98;35.12;37.61;;
72160;Laerm;60045;51.792;10.938;2024-01-07T04:55:13;48.40;35.68;63.81;;
72160;Laerm;60045;51.792;10.938;2024-01-07T04:57:39;47.05;35.41;63.50;;
72160;Laerm;60045;51.792;10.938;2024-01-07T05:00:05;46.07;35.01;62.61;;
72160;Laerm;60045;51.792;10.938;2024-01-07T05:02:31;46.92;35.24;63.25;;
72160;Laerm;60045;51.792;10.938;2024-01-07T05:04:57;50.69;35.38;69.54;;
72160;Laerm;60045;51.792;10.938;2024-01-07T05:07:22;36.24;35.05;40.10;;
72160;Laerm;60045;51.792;10.938;2024-01-07T05:09:48;36.43;35.36;39.33;;
72160;Laerm;60045;51.792;10.938;2024-01-07T05:12:14;36.36;35.24;42.99;;
72160;Laerm;60045;51.792;10.938;2024-01-07T05:14:40;36.06;35.26;38.83;;
72160;Laerm;60045;51.792;10.938;2024-01-07T05:17:07;36.68;35.34;41.88;;
72160;Laerm;60045;51.792;10.938;2024-01-07T05:19:33;50.13;35.32;66.28;;
72160;Laerm;60045;51.792;10.938;2024-01-07T05:21:59;36.15;34.99;42.89;;
72160;Laerm;60045;51.792;10.938;2024-01-07T05:24:25;47.15;35.17;63.56;;
72160;Laerm;60045;51.792;10.938;2024-01-07T05:26:50;35.82;34.87;41.34;;
72160;Laerm;60045;51.792;10.938;2024-01-07T05:29:16;35.97;35.06;38.06;;
72160;Laerm;60045;51.792;10.938;2024-01-07T05:31:42;43.52;35.18;57.53;;
72160;Laerm;60045;51.792;10.938;2024-01-07T05:34:08;48.93;36.03;63.37;;
72160;Laerm;60045;51.792;10.938;2024-01-07T05:36:33;36.57;35.19;44.10;;
72160;Laerm;60045;51.792;10.938;2024-01-07T05:38:59;36.14;35.07;40.83;;
72160;Laerm;60045;51.792;10.938;2024-01-07T05:41:25;37.85;35.39;50.28;;
72160;Laerm;60045;51.792;10.938;2024-01-07T05:43:51;38.22;35.62;54.64;;
72160;Laerm;60045;51.792;10.938;2024-01-07T05:46:16;47.38;35.69;63.25;;
72160;Laerm;60045;51.792;10.938;2024-01-07T05:48:43;50.22;36.70;63.62;;
72160;Laerm;60045;51.792;10.938;2024-01-07T05:51:09;37.09;35.65;42.00;;
72160;Laerm;60045;51.792;10.938;2024-01-07T05:53:35;49.51;35.66;65.65;;
72160;Laerm;60045;51.792;10.938;2024-01-07T05:56:01;48.12;35.94;64.49;;
72160;Laerm;60045;51.792;10.938;2024-01-07T05:58:27;38.60;35.70;50.57;;
72160;Laerm;60045;51.792;10.938;2024-01-07T06:00:53;47.06;35.58;64.17;;
72160;Laerm;60045;51.792;10.938;2024-01-07T06:03:19;47.25;35.64;64.99;;
72160;Laerm;60045;51.792;10.938;2024-01-07T06:05:45;37.02;35.49;41.93;;
72160;Laerm;60045;51.792;10.938;2024-01-07T06:08:10;36.67;35.29;44.08;;
72160;Laerm;60045;51.792;10.938;2024-01-07T06:10:37;36.94;35.27;49.20;;
72160;Laerm;60045;51.792;10.938;2024-01-07T06:13:03;36.56;35.21;56.07;;
72160;Laerm;60045;51.792;10.938;2024-01-07T06:15:29;36.48;35.34;54.48;;
72160;Laerm;60045;51.792;10.938;2024-01-07T06:17:55;45.76;35.14;61.90;;
72160;Laerm;60045;51.792;10.938;2024-01-07T06:20:20;37.13;35.07;53.37;;
72160;Laerm;60045;51.792;10.938;2024-01-07T06:22:46;47.59;34.81;65.12;;
72160;Laerm;60045;51.792;10.938;2024-01-07T06:25:12;47.85;35.76;62.97;;
72160;Laerm;60045;51.792;10.938;2024-01-07T06:27:38;46.69;35.47;63.48;;
72160;Laerm;60045;51.792;10.938;2024-01-07T06:30:06;50.03;35.40;64.94;;
72160;Laerm;60045;51.792;10.938;2024-01-07T06:32:31;35.91;35.03;43.18;;
72160;Laerm;60045;51.792;10.938;2024-01-07T06:34:57;36.49;35.14;46.47;;
72160;Laerm;60045;51.792;10.938;2024-01-07T06:37:23;55.15;35.41;70.25;;
72160;Laerm;60045;51.792;10.938;2024-01-07T06:39:49;38.83;35.26;50.18;;
72160;Laerm;60045;51.792;10.938;2024-01-07T06:42:15;48.34;35.20;65.30;;
72160;Laerm;60045;51.792;10.938;2024-01-07T06:44:41;36.42;35.19;45.06;;
72160;Laerm;60045;51.792;10.938;2024-01-07T06:47:07;36.28;34.97;43.83;;
72160;Laerm;60045;51.792;10.938;2024-01-07T06:49:32;35.94;34.88;43.83;;
72160;Laerm;60045;51.792;10.938;2024-01-07T06:51:58;37.31;35.57;46.01;;
72160;Laerm;60045;51.792;10.938;2024-01-07T06:54:24;49.88;35.60;63.71;;
72160;Laerm;60045;51.792;10.938;2024-01-07T06:56:50;37.29;35.55;43.51;;
72160;Laerm;60045;51.792;10.938;2024-01-07T06:59:16;36.88;35.57;42.14;;
72160;Laerm;60045;51.792;10.938;2024-01-07T07:01:41;55.04;35.78;72.29;;
72160;Laerm;60045;51.792;10.938;2024-01-07T07:04:07;55.40;36.28;73.75;;
72160;Laerm;60045;51.792;10.938;2024-01-07T07:06:33;38.87;36.05;46.86;;
72160;Laerm;60045;51.792;10.938;2024-01-07T07:08:59;37.49;35.72;50.87;;
72160;Laerm;60045;51.792;10.938;2024-01-07T07:11:25;39.10;36.28;49.93;;
72160;Laerm;60045;51.792;10.938;2024-01-07T07:13:51;38.95;35.86;45.50;;
72160;Laerm;60045;51.792;10.938;2024-01-07T07:16:17;37.51;35.65;42.97;;
72160;Laerm;60045;51.792;10.938;2024-01-07T07:18:43;49.43;35.48;66.65;;
72160;Laerm;60045;51.792;10.938;2024-01-07T07:21:08;37.59;35.20;48.92;;
72160;Laerm;60045;51.792;10.938;2024-01-07T07:23:34;38.45;35.64;46.80;;
72160;Laerm;60045;51.792;10.938;2024-01-07T07:26:00;54.02;36.20;70.53;;
72160;Laerm;60045;51.792;10.938;2024-01-07T07:28:25;51.27;36.60;67.68;;
72160;Laerm;60045;51.792;10.938;2024-01-07T07:30:52;38.67;35.45;48.87;;
72160;Laerm;60045;51.792;10.938;2024-01-07T07:33:18;46.68;35.44;61.63;;
72160;Laerm;60045;51.792;10.938;2024-01-07T07:35:43;37.33;35.11;42.23;;
72160;Laerm;60045;51.792;10.938;2024-01-07T07:38:09;49.14;35.33;64.14;;
72160;Laerm;60045;51.792;10.938;2024-01-07T07:40:35;38.48;35.51;47.07;;
72160;Laerm;60045;51.792;10.938;2024-01-07T07:43:00;38.24;35.51;49.59;;
72160;Laerm;60045;51.792;10.938;2024-01-07T07:45:26;39.95;35.89;54.92;;
72160;Laerm;60045;51.792;10.938;2024-01-07T07:47:52;39.87;35.94;52.14;;
72160;Laerm;60045;51.792;10.938;2024-01-07T07:50:17;37.16;35.61;43.08;;
72160;Laerm;60045;51.792;10.938;2024-01-07T07:52:43;38.33;36.05;52.79;;
72160;Laerm;60045;51.792;10.938;2024-01-07T07:55:09;49.30;35.97;66.73;;
72160;Laerm;60045;51.792;10.938;2024-01-07T07:57:35;46.51;35.61;61.51;;
72160;Laerm;60045;51.792;10.938;2024-01-07T08:00:01;52.47;35.55;69.70;;
72160;Laerm;60045;51.792;10.938;2024-01-07T08:02:27;37.99;35.71;45.15;;
72160;Laerm;60045;51.792;10.938;2024-01-07T08:04:53;48.00;36.18;63.69;;
72160;Laerm;60045;51.792;10.938;2024-01-07T08:07:18;50.77;36.26;63.46;;
72160;Laerm;60045;51.792;10.938;2024-01-07T08:09:44;49.11;36.25;67.33;;
72160;Laerm;60045;51.792;10.938;2024-01-07T08:12:10;41.32;36.26;59.18;;
72160;Laerm;60045;51.792;10.938;2024-01-07T08:14:37;39.70;36.54;52.53;;
72160;Laerm;60045;51.792;10.938;2024-01-07T08:17:06;38.70;36.39;47.35;;
72160;Laerm;60045;51.792;10.938;2024-01-07T08:19:31;49.72;36.32;66.00;;
72160;Laerm;60045;51.792;10.938;2024-01-07T08:21:57;46.78;35.66;61.02;;
72160;Laerm;60045;51.792;10.938;2024-01-07T08:24:23;49.52;36.38;63.61;;
72160;Laerm;60045;51.792;10.938;2024-01-07T08:26:49;39.46;35.77;48.05;;
72160;Laerm;60045;51.792;10.938;2024-01-07T08:29:14;52.17;36.03;69.90;;
72160;Laerm;60045;51.792;10.938;2024-01-07T08:31:40;46.85;35.95;60.45;;
72160;Laerm;60045;51.792;10.938;2024-01-07T08:34:07;46.63;35.73;63.04;;
72160;Laerm;60045;51.792;10.938;2024-01-07T08:36:33;49.03;37.07;65.64;;
72160;Laerm;60045;51.792;10.938;2024-01-07T08:38:58;53.94;36.01;69.44;;
72160;Laerm;60045;51.792;10.938;2024-01-07T08:41:25;50.03;35.86;68.32;;
72160;Laerm;60045;51.792;10.938;2024-01-07T08:43:51;38.68;36.22;47.40;;
72160;Laerm;60045;51.792;10.938;2024-01-07T08:46:16;54.87;36.90;67.16;;
72160;Laerm;60045;51.792;10.938;2024-01-07T08:48:42;49.13;36.43;62.82;;
72160;Laerm;60045;51.792;10.938;2024-01-07T08:51:08;54.68;36.26;67.97;;
72160;Laerm;60045;51.792;10.938;2024-01-07T08:53:34;49.10;35.95;64.10;;
72160;Laerm;60045;51.792;10.938;2024-01-07T08:55:59;47.61;36.92;60.76;;
72160;Laerm;60045;51.792;10.938;2024-01-07T08:58:25;51.55;37.90;66.39;;
72160;Laerm;60045;51.792;10.938;2024-01-07T09:00:51;50.72;36.56;63.84;;
72160;Laerm;60045;51.792;10.938;2024-01-07T09:03:16;43.14;36.47;58.43;;
72160;Laerm;60045;51.792;10.938;2024-01-07T09:05:43;38.28;35.77;46.14;;
72160;Laerm;60045;51.792;10.938;2024-01-07T09:08:08;42.18;36.31;57.92;;
72160;Laerm;60045;51.792;10.938;2024-01-07T09:10:36;37.46;35.45;45.20;;
72160;Laerm;60045;51.792;10.938;2024-01-07T09:13:05;55.10;36.13;69.07;;
72160;Laerm;60045;51.792;10.938;2024-01-07T09:15:31;50.27;36.63;61.24;;
72160;Laerm;60045;51.792;10.938;2024-01-07T09:17:57;51.19;36.25;64.44;;
72160;Laerm;60045;51.792;10.938;2024-01-07T09:20:23;45.54;36.07;60.59;;
72160;Laerm;60045;51.792;10.938;2024-01-07T09:22:48;49.62;36.17;63.26;;
72160;Laerm;60045;51.792;10.938;2024-01-07T09:25:14;56.77;36.13;72.85;;
72160;Laerm;60045;51.792;10.938;2024-01-07T09:27:41;55.26;37.54;67.20;;
72160;Laerm;60045;51.792;10.938;2024-01-07T09:30:08;52.32;36.83;71.29;;
72160;Laerm;60045;51.792;10.938;2024-01-07T09:32:35;54.79;36.82;70.81;;
72160;Laerm;60045;51.792;10.938;2024-01-07T09:35:01;51.93;36.50;65.52;;
72160;Laerm;60045;51.792;10.938;2024-01-07T09:37:27;38.35;35.95;51.35;;
72160;Laerm;60045;51.792;10.938;2024-01-07T09:39:53;48.96;36.52;67.17;;
72160;Laerm;60045;51.792;10.938;2024-01-07T09:42:19;54.13;36.67;68.87;;
72160;Laerm;60045;51.792;10.938;2024-01-07T09:44:45;39.24;36.51;50.00;;
72160;Laerm;60045;51.792;10.938;2024-01-07T09:47:14;54.58;37.34;68.15;;
72160;Laerm;60045;51.792;10.938;2024-01-07T09:49:40;50.81;36.76;64.79;;
72160;Laerm;60045;51.792;10.938;2024-01-07T09:52:07;49.06;36.60;65.81;;
72160;Laerm;60045;51.792;10.938;2024-01-07T09:54:33;59.23;36.90;74.05;;
72160;Laerm;60045;51.792;10.938;2024-01-07T09:57:02;52.96;36.50;68.64;;
72160;Laerm;60045;51.792;10.938;2024-01-07T09:59:28;38.03;35.89;50.95;;
72160;Laerm;60045;51.792;10.938;2024-01-07T10:01:55;55.58;37.27;68.52;;
72160;Laerm;60045;51.792;10.938;2024-01-07T10:04:20;55.62;36.69;67.84;;
72160;Laerm;60045;51.792;10.938;2024-01-07T10:06:46;54.00;36.69;66.13;;
72160;Laerm;60045;51.792;10.938;2024-01-07T10:09:14;48.85;35.75;66.27;;
72160;Laerm;60045;51.792;10.938;2024-01-07T10:11:40;51.69;36.23;67.54;;
72160;Laerm;60045;51.792;10.938;2024-01-07T10:14:06;52.72;36.53;64.94;;
72160;Laerm;60045;51.792;10.938;2024-01-07T10:16:32;49.19;36.74;66.03;;
72160;Laerm;60045;51.792;10.938;2024-01-07T10:18:58;50.87;36.98;64.21;;
72160;Laerm;60045;51.792;10.938;2024-01-07T10:21:24;51.47;36.64;66.73;;
72160;Laerm;60045;51.792;10.938;2024-01-07T10:23:49;53.06;36.93;69.11;;
72160;Laerm;60045;51.792;10.938;2024-01-07T10:26:17;57.00;37.04;75.22;;
72160;Laerm;60045;51.792;10.938;2024-01-07T10:32:41;55.79;37.21;69.46;;
72160;Laerm;60045;51.792;10.938;2024-01-07T10:35:14;54.43;37.42;67.39;;
72160;Laerm;60045;51.792;10.938;2024-01-07T10:37:43;54.97;37.61;68.21;;
72160;Laerm;60045;51.792;10.938;2024-01-07T10:40:11;57.49;38.31;69.97;;
72160;Laerm;60045;51.792;10.938;2024-01-07T10:42:37;52.61;37.97;66.40;;
72160;Laerm;60045;51.792;10.938;2024-01-07T10:45:04;58.09;39.45;69.48;;
72160;Laerm;60045;51.792;10.938;2024-01-07T10:47:30;52.93;37.80;67.96;;
72160;Laerm;60045;51.792;10.938;2024-01-07T10:49:57;58.75;38.01;72.30;;
72160;Laerm;60045;51.792;10.938;2024-01-07T10:52:24;54.31;37.14;70.43;;
72160;Laerm;60045;51.792;10.938;2024-01-07T10:54:52;53.28;38.08;66.30;;
72160;Laerm;60045;51.792;10.938;2024-01-07T10:59:50;52.10;36.78;69.60;;
72160;Laerm;60045;51.792;10.938;2024-01-07T11:02:16;53.62;36.96;67.25;;
72160;Laerm;60045;51.792;10.938;2024-01-07T11:04:49;58.47;39.54;71.43;;
72160;Laerm;60045;51.792;10.938;2024-01-07T11:07:25;53.70;36.78;69.15;;
72160;Laerm;60045;51.792;10.938;2024-01-07T11:10:10;54.47;36.55;70.32;;
72160;Laerm;60045;51.792;10.938;2024-01-07T11:12:37;53.73;37.20;66.41;;
72160;Laerm;60045;51.792;10.938;2024-01-07T11:15:03;51.24;36.45;66.57;;
72160;Laerm;60045;51.792;10.938;2024-01-07T11:19:59;52.97;36.34;70.43;;
72160;Laerm;60045;51.792;10.938;2024-01-07T11:24:53;56.70;39.30;73.49;;
72160;Laerm;60045;51.792;10.938;2024-01-07T11:27:20;39.09;35.61;56.10;;
72160;Laerm;60045;51.792;10.938;2024-01-07T11:29:52;52.86;36.69;67.47;;
72160;Laerm;60045;51.792;10.938;2024-01-07T11:32:18;41.33;36.23;62.91;;
72160;Laerm;60045;51.792;10.938;2024-01-07T11:34:44;53.17;36.21;68.97;;
72160;Laerm;60045;51.792;10.938;2024-01-07T11:37:16;53.29;37.03;68.77;;
72160;Laerm;60045;51.792;10.938;2024-01-07T11:39:45;55.26;38.41;67.61;;
72160;Laerm;60045;51.792;10.938;2024-01-07T11:42:11;51.50;35.65;65.39;;
72160;Laerm;60045;51.792;10.938;2024-01-07T11:44:37;55.00;35.76;70.93;;
72160;Laerm;60045;51.792;10.938;2024-01-07T11:47:03;54.68;36.59;67.67;;
72160;Laerm;60045;51.792;10.938;2024-01-07T11:49:30;52.06;36.22;65.96;;
72160;Laerm;60045;51.792;10.938;2024-01-07T11:51:56;56.57;36.26;70.71;;
72160;Laerm;60045;51.792;10.938;2024-01-07T11:54:21;54.50;36.04;67.88;;
72160;Laerm;60045;51.792;10.938;2024-01-07T11:56:47;54.88;36.75;66.22;;
72160;Laerm;60045;51.792;10.938;2024-01-07T11:59:13;57.63;38.21;70.97;;
72160;Laerm;60045;51.792;10.938;2024-01-07T12:01:39;55.95;37.32;74.58;;
72160;Laerm;60045;51.792;10.938;2024-01-07T12:04:04;55.59;37.77;70.75;;
72160;Laerm;60045;51.792;10.938;2024-01-07T12:06:30;53.50;36.83;67.62;;
72160;Laerm;60045;51.792;10.938;2024-01-07T12:08:56;57.49;38.44;70.15;;
72160;Laerm;60045;51.792;10.938;2024-01-07T12:11:21;55.16;37.39;68.01;;
72160;Laerm;60045;51.792;10.938;2024-01-07T12:13:48;49.35;36.06;66.15;;
72160;Laerm;60045;51.792;10.938;2024-01-07T12:16:15;54.29;36.54;67.44;;
72160;Laerm;60045;51.792;10.938;2024-01-07T12:18:42;41.27;36.08;60.16;;
72160;Laerm;60045;51.792;10.938;2024-01-07T12:21:07;53.49;36.62;65.43;;
72160;Laerm;60045;51.792;10.938;2024-01-07T12:23:36;60.39;36.77;75.05;;
72160;Laerm;60045;51.792;10.938;2024-01-07T12:26:08;54.34;36.14;70.64;;
72160;Laerm;60045;51.792;10.938;2024-01-07T12:28:34;53.35;37.00;66.21;;
72160;Laerm;60045;51.792;10.938;2024-01-07T12:31:00;53.95;36.13;69.11;;
72160;Laerm;60045;51.792;10.938;2024-01-07T12:33:26;51.28;36.55;62.59;;
72160;Laerm;60045;51.792;10.938;2024-01-07T12:35:54;58.60;39.77;71.93;;
72160;Laerm;60045;51.792;10.938;2024-01-07T12:38:29;58.20;36.61;72.98;;
72160;Laerm;60045;51.792;10.938;2024-01-07T12:40:55;60.42;37.82;75.86;;
72160;Laerm;60045;51.792;10.938;2024-01-07T12:43:21;44.61;36.10;70.61;;
72160;Laerm;60045;51.792;10.938;2024-01-07T12:45:48;52.61;36.34;65.48;;
72160;Laerm;60045;51.792;10.938;2024-01-07T12:48:13;52.90;36.61;65.05;;
72160;Laerm;60045;51.792;10.938;2024-01-07T12:50:39;56.65;37.84;68.21;;
72160;Laerm;60045;51.792;10.938;2024-01-07T12:53:05;55.24;36.54;68.00;;
72160;Laerm;60045;51.792;10.938;2024-01-07T12:55:31;67.85;36.64;86.96;;
72160;Laerm;60045;51.792;10.938;2024-01-07T12:57:57;53.50;36.47;68.32;;
72160;Laerm;60045;51.792;10.938;2024-01-07T13:00:23;55.31;36.08;69.36;;
72160;Laerm;60045;51.792;10.938;2024-01-07T13:02:50;57.65;37.58;70.36;;
72160;Laerm;60045;51.792;10.938;2024-01-07T13:05:16;69.79;38.07;95.80;;
72160;Laerm;60045;51.792;10.938;2024-01-07T13:07:42;62.10;38.58;72.51;;
72160;Laerm;60045;51.792;10.938;2024-01-07T13:10:08;60.89;37.78;72.74;;
72160;Laerm;60045;51.792;10.938;2024-01-07T13:12:34;60.56;37.43;73.67;;
72160;Laerm;60045;51.792;10.938;2024-01-07T13:15:00;55.87;36.33;68.73;;
72160;Laerm;60045;51.792;10.938;2024-01-07T13:17:26;63.82;37.15;74.23;;
72160;Laerm;60045;51.792;10.938;2024-01-07T13:19:52;61.89;37.26;71.49;;
72160;Laerm;60045;51.792;10.938;2024-01-07T13:22:18;59.79;38.01;72.40;;
72160;Laerm;60045;51.792;10.938;2024-01-07T13:24:43;52.35;36.12;69.76;;
72160;Laerm;60045;51.792;10.938;2024-01-07T13:27:09;62.93;37.23;76.63;;
72160;Laerm;60045;51.792;10.938;2024-01-07T13:29:35;60.10;36.88;74.01;;
72160;Laerm;60045;51.792;10.938;2024-01-07T13:32:01;60.75;36.86;70.76;;
72160;Laerm;60045;51.792;10.938;2024-01-07T13:34:27;63.31;37.47;75.91;;
72160;Laerm;60045;51.792;10.938;2024-01-07T13:36:52;59.84;37.44;73.79;;